sensor_id;sensor_type;location;lat;lon;timestamp;temperature;humidity
54954;DHT22;40855;51.072;5.402;2023-02-15T00:01:55;5.70;99.90
54954;DHT22;40855;51.072;5.402;2023-02-15T00:04:23;5.70;99.90
54954;DHT22;40855;51.072;5.402;2023-02-15T00:06:49;5.70;99.90
54954;DHT22;40855;51.072;5.402;2023-02-15T00:09:15;5.60;99.90
54954;DHT22;40855;51.072;5.402;2023-02-15T00:11:42;5.60;99.90
54954;DHT22;40855;51.072;5.402;2023-02-15T00:14:21;5.60;99.90
54954;DHT22;40855;51.072;5.402;2023-02-15T00:16:48;5.60;99.90
54954;DHT22;40855;51.072;5.402;2023-02-15T00:19:17;5.60;99.90
54954;DHT22;40855;51.072;5.402;2023-02-15T00:21:43;5.50;99.90
54954;DHT22;40855;51.072;5.402;2023-02-15T00:24:11;5.50;99.90
54954;DHT22;40855;51.072;5.402;2023-02-15T00:26:41;5.50;99.90
54954;DHT22;40855;51.072;5.402;2023-02-15T00:29:08;5.50;99.90
54954;DHT22;40855;51.072;5.402;2023-02-15T00:31:35;5.50;99.90
54954;DHT22;40855;51.072;5.402;2023-02-15T00:34:03;5.40;99.90
54954;DHT22;40855;51.072;5.402;2023-02-15T00:36:29;5.40;99.90
54954;DHT22;40855;51.072;5.402;2023-02-15T00:38:55;5.40;99.90
54954;DHT22;40855;51.072;5.402;2023-02-15T00:41:21;5.40;99.90
54954;DHT22;40855;51.072;5.402;2023-02-15T00:43:46;5.30;99.90
54954;DHT22;40855;51.072;5.402;2023-02-15T00:46:12;5.40;99.90
54954;DHT22;40855;51.072;5.402;2023-02-15T00:48:38;5.30;99.90
54954;DHT22;40855;51.072;5.402;2023-02-15T00:51:04;5.30;99.90
54954;DHT22;40855;51.072;5.402;2023-02-15T00:53:30;5.20;99.90
54954;DHT22;40855;51.072;5.402;2023-02-15T00:55:56;5.20;99.90
54954;DHT22;40855;51.072;5.402;2023-02-15T00:58:22;5.20;99.90
54954;DHT22;40855;51.072;5.402;2023-02-15T01:00:48;5.20;99.90
54954;DHT22;40855;51.072;5.402;2023-02-15T01:03:16;5.20;99.90
54954;DHT22;40855;51.072;5.402;2023-02-15T01:05:42;5.20;99.90
54954;DHT22;40855;51.072;5.402;2023-02-15T01:08:08;5.20;99.90
54954;DHT22;40855;51.072;5.402;2023-02-15T01:10:35;5.20;99.90
54954;DHT22;40855;51.072;5.402;2023-02-15T01:13:01;5.20;99.90
54954;DHT22;40855;51.072;5.402;2023-02-15T01:15:27;5.20;99.90
54954;DHT22;40855;51.072;5.402;2023-02-15T01:17:53;5.20;99.90
54954;DHT22;40855;51.072;5.402;2023-02-15T01:20:19;5.10;99.90
54954;DHT22;40855;51.072;5.402;2023-02-15T01:22:45;5.10;99.90
54954;DHT22;40855;51.072;5.402;2023-02-15T01:25:11;5.10;99.90
54954;DHT22;40855;51.072;5.402;2023-02-15T01:27:37;5.00;99.90
54954;DHT22;40855;51.072;5.402;2023-02-15T01:30:03;5.00;99.90
54954;DHT22;40855;51.072;5.402;2023-02-15T01:32:30;5.00;99.90
54954;DHT22;40855;51.072;5.402;2023-02-15T01:34:56;4.90;99.90
54954;DHT22;40855;51.072;5.402;2023-02-15T01:37:22;4.90;99.90
54954;DHT22;40855;51.072;5.402;2023-02-15T01:39:48;4.90;99.90
54954;DHT22;40855;51.072;5.402;2023-02-15T01:42:13;4.90;99.90
54954;DHT22;40855;51.072;5.402;2023-02-15T01:44:54;4.80;99.90
54954;DHT22;40855;51.072;5.402;2023-02-15T01:47:41;4.80;99.90
54954;DHT22;40855;51.072;5.402;2023-02-15T01:50:18;4.80;99.90
54954;DHT22;40855;51.072;5.402;2023-02-15T01:55:22;4.70;99.90
54954;DHT22;40855;51.072;5.402;2023-02-15T01:57:50;4.70;99.90
54954;DHT22;40855;51.072;5.402;2023-02-15T02:00:16;4.70;99.90
54954;DHT22;40855;51.072;5.402;2023-02-15T02:02:45;4.70;99.90
54954;DHT22;40855;51.072;5.402;2023-02-15T02:05:11;4.70;99.90
54954;DHT22;40855;51.072;5.402;2023-02-15T02:07:40;4.70;99.90
54954;DHT22;40855;51.072;5.402;2023-02-15T02:10:09;4.70;99.90
54954;DHT22;40855;51.072;5.402;2023-02-15T02:12:36;4.70;99.90
54954;DHT22;40855;51.072;5.402;2023-02-15T02:15:04;4.70;99.90
54954;DHT22;40855;51.072;5.402;2023-02-15T02:17:42;4.60;99.90
54954;DHT22;40855;51.072;5.402;2023-02-15T02:20:50;4.50;99.90
54954;DHT22;40855;51.072;5.402;2023-02-15T02:26:29;4.50;99.90
54954;DHT22;40855;51.072;5.402;2023-02-15T02:34:49;4.40;99.90
54954;DHT22;40855;51.072;5.402;2023-02-15T02:50:41;4.20;99.90
54954;DHT22;40855;51.072;5.402;2023-02-15T02:53:08;4.10;99.90
54954;DHT22;40855;51.072;5.402;2023-02-15T02:58:09;4.10;99.90
54954;DHT22;40855;51.072;5.402;2023-02-15T03:00:40;4.10;99.90
54954;DHT22;40855;51.072;5.402;2023-02-15T03:03:36;4.10;99.90
54954;DHT22;40855;51.072;5.402;2023-02-15T03:06:06;4.20;99.90
54954;DHT22;40855;51.072;5.402;2023-02-15T03:08:40;4.20;99.90
54954;DHT22;40855;51.072;5.402;2023-02-15T03:11:07;4.20;99.90
54954;DHT22;40855;51.072;5.402;2023-02-15T03:13:33;4.20;99.90
54954;DHT22;40855;51.072;5.402;2023-02-15T03:16:00;4.10;99.90
54954;DHT22;40855;51.072;5.402;2023-02-15T03:18:48;4.10;99.90
54954;DHT22;40855;51.072;5.402;2023-02-15T03:21:45;4.10;99.90
54954;DHT22;40855;51.072;5.402;2023-02-15T03:24:25;4.10;99.90
54954;DHT22;40855;51.072;5.402;2023-02-15T03:26:53;4.00;99.90
54954;DHT22;40855;51.072;5.402;2023-02-15T03:29:24;4.00;99.90
54954;DHT22;40855;51.072;5.402;2023-02-15T03:31:54;4.00;99.90
54954;DHT22;40855;51.072;5.402;2023-02-15T03:34:21;4.00;99.90
54954;DHT22;40855;51.072;5.402;2023-02-15T03:37:13;4.00;99.90
54954;DHT22;40855;51.072;5.402;2023-02-15T03:42:25;3.90;99.90
54954;DHT22;40855;51.072;5.402;2023-02-15T03:45:08;4.00;99.90
54954;DHT22;40855;51.072;5.402;2023-02-15T03:47:38;3.90;99.90
54954;DHT22;40855;51.072;5.402;2023-02-15T03:50:26;3.90;99.90
54954;DHT22;40855;51.072;5.402;2023-02-15T03:53:14;3.90;99.90
54954;DHT22;40855;51.072;5.402;2023-02-15T03:55:40;3.90;99.90
54954;DHT22;40855;51.072;5.402;2023-02-15T03:58:06;3.90;99.90
54954;DHT22;40855;51.072;5.402;2023-02-15T04:01:21;3.80;99.90
54954;DHT22;40855;51.072;5.402;2023-02-15T04:04:37;3.70;99.90
54954;DHT22;40855;51.072;5.402;2023-02-15T04:07:08;3.70;99.90
54954;DHT22;40855;51.072;5.402;2023-02-15T04:09:34;3.60;99.90
54954;DHT22;40855;51.072;5.402;2023-02-15T04:12:18;3.60;99.90
54954;DHT22;40855;51.072;5.402;2023-02-15T04:14:44;3.60;99.90
54954;DHT22;40855;51.072;5.402;2023-02-15T04:17:28;3.60;99.90
54954;DHT22;40855;51.072;5.402;2023-02-15T04:19:54;3.50;99.90
54954;DHT22;40855;51.072;5.402;2023-02-15T04:22:38;3.50;99.90
54954;DHT22;40855;51.072;5.402;2023-02-15T04:25:22;3.50;99.90
54954;DHT22;40855;51.072;5.402;2023-02-15T04:27:50;3.50;99.90
54954;DHT22;40855;51.072;5.402;2023-02-15T04:30:19;3.40;99.90
54954;DHT22;40855;51.072;5.402;2023-02-15T04:32:45;3.40;99.90
54954;DHT22;40855;51.072;5.402;2023-02-15T04:35:11;3.40;99.90
54954;DHT22;40855;51.072;5.402;2023-02-15T04:37:39;3.30;99.90
54954;DHT22;40855;51.072;5.402;2023-02-15T04:40:06;3.30;99.90
54954;DHT22;40855;51.072;5.402;2023-02-15T04:42:32;3.30;99.90
54954;DHT22;40855;51.072;5.402;2023-02-15T04:44:58;3.30;99.90
54954;DHT22;40855;51.072;5.402;2023-02-15T04:47:24;3.30;99.90
54954;DHT22;40855;51.072;5.402;2023-02-15T04:49:50;3.30;99.90
54954;DHT22;40855;51.072;5.402;2023-02-15T04:52:15;3.30;99.90
54954;DHT22;40855;51.072;5.402;2023-02-15T04:54:43;3.30;99.90
54954;DHT22;40855;51.072;5.402;2023-02-15T04:57:09;3.20;99.90
54954;DHT22;40855;51.072;5.402;2023-02-15T04:59:35;3.20;99.90
54954;DHT22;40855;51.072;5.402;2023-02-15T05:02:00;3.20;99.90
54954;DHT22;40855;51.072;5.402;2023-02-15T05:04:26;3.20;99.90
54954;DHT22;40855;51.072;5.402;2023-02-15T05:06:52;3.20;99.90
54954;DHT22;40855;51.072;5.402;2023-02-15T05:09:18;3.10;99.90
54954;DHT22;40855;51.072;5.402;2023-02-15T05:11:43;3.10;99.90
54954;DHT22;40855;51.072;5.402;2023-02-15T05:14:09;3.10;99.90
54954;DHT22;40855;51.072;5.402;2023-02-15T05:16:35;3.10;99.90
54954;DHT22;40855;51.072;5.402;2023-02-15T05:19:00;3.00;99.90
54954;DHT22;40855;51.072;5.402;2023-02-15T05:21:26;3.00;99.90
54954;DHT22;40855;51.072;5.402;2023-02-15T05:23:52;2.90;99.90
54954;DHT22;40855;51.072;5.402;2023-02-15T05:26:20;2.90;99.90
54954;DHT22;40855;51.072;5.402;2023-02-15T05:29:05;2.90;99.90
54954;DHT22;40855;51.072;5.402;2023-02-15T05:31:31;2.90;99.90
54954;DHT22;40855;51.072;5.402;2023-02-15T05:33:57;2.80;99.90
54954;DHT22;40855;51.072;5.402;2023-02-15T05:36:23;2.80;99.90
54954;DHT22;40855;51.072;5.402;2023-02-15T05:38:49;2.80;99.90
54954;DHT22;40855;51.072;5.402;2023-02-15T05:41:15;2.80;99.90
54954;DHT22;40855;51.072;5.402;2023-02-15T05:43:41;2.80;99.90
54954;DHT22;40855;51.072;5.402;2023-02-15T05:46:08;2.80;99.90
54954;DHT22;40855;51.072;5.402;2023-02-15T05:48:34;2.80;99.90
54954;DHT22;40855;51.072;5.402;2023-02-15T05:51:05;2.80;99.90
54954;DHT22;40855;51.072;5.402;2023-02-15T05:53:33;2.80;99.90
54954;DHT22;40855;51.072;5.402;2023-02-15T05:56:00;2.80;99.90
54954;DHT22;40855;51.072;5.402;2023-02-15T05:58:29;2.80;99.90
54954;DHT22;40855;51.072;5.402;2023-02-15T06:00:55;2.80;99.90
54954;DHT22;40855;51.072;5.402;2023-02-15T06:03:21;2.70;99.90
54954;DHT22;40855;51.072;5.402;2023-02-15T06:05:47;2.70;99.90
54954;DHT22;40855;51.072;5.402;2023-02-15T06:08:13;2.70;99.90
54954;DHT22;40855;51.072;5.402;2023-02-15T06:10:38;2.70;99.90
54954;DHT22;40855;51.072;5.402;2023-02-15T06:13:06;2.70;99.90
54954;DHT22;40855;51.072;5.402;2023-02-15T06:15:32;2.60;99.90
54954;DHT22;40855;51.072;5.402;2023-02-15T06:17:57;2.60;99.90
54954;DHT22;40855;51.072;5.402;2023-02-15T06:20:23;2.60;99.90
54954;DHT22;40855;51.072;5.402;2023-02-15T06:22:49;2.60;99.90
54954;DHT22;40855;51.072;5.402;2023-02-15T06:25:15;2.50;99.90
54954;DHT22;40855;51.072;5.402;2023-02-15T06:27:41;2.50;99.90
54954;DHT22;40855;51.072;5.402;2023-02-15T06:30:08;2.50;99.90
54954;DHT22;40855;51.072;5.402;2023-02-15T06:32:35;2.50;99.90
54954;DHT22;40855;51.072;5.402;2023-02-15T06:35:00;2.50;99.90
54954;DHT22;40855;51.072;5.402;2023-02-15T06:37:26;2.50;99.90
54954;DHT22;40855;51.072;5.402;2023-02-15T06:39:52;2.40;99.90
54954;DHT22;40855;51.072;5.402;2023-02-15T06:42:18;2.40;99.90
54954;DHT22;40855;51.072;5.402;2023-02-15T06:44:44;2.40;99.90
54954;DHT22;40855;51.072;5.402;2023-02-15T06:47:10;2.40;99.90
54954;DHT22;40855;51.072;5.402;2023-02-15T06:49:36;2.50;99.90
54954;DHT22;40855;51.072;5.402;2023-02-15T06:52:02;2.50;99.90
54954;DHT22;40855;51.072;5.402;2023-02-15T06:54:28;2.40;99.90
54954;DHT22;40855;51.072;5.402;2023-02-15T06:56:54;2.40;99.90
54954;DHT22;40855;51.072;5.402;2023-02-15T06:59:20;2.40;99.90
54954;DHT22;40855;51.072;5.402;2023-02-15T07:01:45;2.40;99.90
54954;DHT22;40855;51.072;5.402;2023-02-15T07:04:11;2.40;99.90
54954;DHT22;40855;51.072;5.402;2023-02-15T07:06:37;2.40;99.90
54954;DHT22;40855;51.072;5.402;2023-02-15T07:09:03;2.40;99.90
54954;DHT22;40855;51.072;5.402;2023-02-15T07:11:30;2.40;99.90
54954;DHT22;40855;51.072;5.402;2023-02-15T07:14:15;2.40;99.90
54954;DHT22;40855;51.072;5.402;2023-02-15T07:16:40;2.30;99.90
54954;DHT22;40855;51.072;5.402;2023-02-15T07:19:06;2.30;99.90
54954;DHT22;40855;51.072;5.402;2023-02-15T07:21:33;2.40;99.90
54954;DHT22;40855;51.072;5.402;2023-02-15T07:23:59;2.40;99.90
54954;DHT22;40855;51.072;5.402;2023-02-15T07:26:25;2.40;99.90
54954;DHT22;40855;51.072;5.402;2023-02-15T07:28:51;2.40;99.90
54954;DHT22;40855;51.072;5.402;2023-02-15T07:31:17;2.40;99.90
54954;DHT22;40855;51.072;5.402;2023-02-15T07:33:43;2.40;99.90
54954;DHT22;40855;51.072;5.402;2023-02-15T07:36:09;2.30;99.90
54954;DHT22;40855;51.072;5.402;2023-02-15T07:38:38;2.30;99.90
54954;DHT22;40855;51.072;5.402;2023-02-15T07:41:06;2.30;99.90
54954;DHT22;40855;51.072;5.402;2023-02-15T07:43:37;2.30;99.90
54954;DHT22;40855;51.072;5.402;2023-02-15T07:46:08;2.30;99.90
54954;DHT22;40855;51.072;5.402;2023-02-15T07:48:35;2.30;99.90
54954;DHT22;40855;51.072;5.402;2023-02-15T07:51:02;2.30;99.90
54954;DHT22;40855;51.072;5.402;2023-02-15T07:53:29;2.30;99.90
54954;DHT22;40855;51.072;5.402;2023-02-15T07:55:54;2.30;99.90
54954;DHT22;40855;51.072;5.402;2023-02-15T07:58:23;2.30;99.90
54954;DHT22;40855;51.072;5.402;2023-02-15T08:01:08;2.30;99.90
54954;DHT22;40855;51.072;5.402;2023-02-15T08:03:34;2.30;99.90
54954;DHT22;40855;51.072;5.402;2023-02-15T08:06:00;2.30;99.90
54954;DHT22;40855;51.072;5.402;2023-02-15T08:08:28;2.30;99.90
54954;DHT22;40855;51.072;5.402;2023-02-15T08:13:58;2.30;99.90
54954;DHT22;40855;51.072;5.402;2023-02-15T08:21:48;2.40;99.90
54954;DHT22;40855;51.072;5.402;2023-02-15T08:24:16;2.40;99.90
54954;DHT22;40855;51.072;5.402;2023-02-15T08:26:43;2.50;99.90
54954;DHT22;40855;51.072;5.402;2023-02-15T08:29:12;2.50;99.90
54954;DHT22;40855;51.072;5.402;2023-02-15T08:31:39;2.60;99.90
54954;DHT22;40855;51.072;5.402;2023-02-15T08:34:07;2.60;99.90
54954;DHT22;40855;51.072;5.402;2023-02-15T08:36:33;2.60;99.90
54954;DHT22;40855;51.072;5.402;2023-02-15T08:39:01;2.70;99.90
54954;DHT22;40855;51.072;5.402;2023-02-15T08:41:33;2.80;99.90
54954;DHT22;40855;51.072;5.402;2023-02-15T08:44:01;2.80;99.90
54954;DHT22;40855;51.072;5.402;2023-02-15T08:46:29;2.90;99.90
54954;DHT22;40855;51.072;5.402;2023-02-15T08:48:56;2.90;99.90
54954;DHT22;40855;51.072;5.402;2023-02-15T08:51:24;2.90;99.90
54954;DHT22;40855;51.072;5.402;2023-02-15T08:53:55;3.00;99.90
54954;DHT22;40855;51.072;5.402;2023-02-15T08:56:24;3.00;99.90
54954;DHT22;40855;51.072;5.402;2023-02-15T08:58:50;3.10;99.90
54954;DHT22;40855;51.072;5.402;2023-02-15T09:01:21;3.20;99.90
54954;DHT22;40855;51.072;5.402;2023-02-15T09:03:49;3.20;99.90
54954;DHT22;40855;51.072;5.402;2023-02-15T09:06:24;3.30;99.90
54954;DHT22;40855;51.072;5.402;2023-02-15T09:08:51;3.40;99.90
54954;DHT22;40855;51.072;5.402;2023-02-15T09:11:22;3.40;99.90
54954;DHT22;40855;51.072;5.402;2023-02-15T09:13:56;3.50;99.90
54954;DHT22;40855;51.072;5.402;2023-02-15T09:16:24;3.60;99.90
54954;DHT22;40855;51.072;5.402;2023-02-15T09:18:51;3.70;99.90
54954;DHT22;40855;51.072;5.402;2023-02-15T09:21:20;3.80;99.90
54954;DHT22;40855;51.072;5.402;2023-02-15T09:23:48;3.80;99.90
54954;DHT22;40855;51.072;5.402;2023-02-15T09:26:19;3.90;99.90
54954;DHT22;40855;51.072;5.402;2023-02-15T09:28:46;4.10;99.90
54954;DHT22;40855;51.072;5.402;2023-02-15T09:31:15;4.20;99.90
54954;DHT22;40855;51.072;5.402;2023-02-15T09:33:43;4.30;99.90
54954;DHT22;40855;51.072;5.402;2023-02-15T09:36:19;4.40;99.90
54954;DHT22;40855;51.072;5.402;2023-02-15T09:38:47;4.60;99.90
54954;DHT22;40855;51.072;5.402;2023-02-15T09:44:22;4.90;99.90
54954;DHT22;40855;51.072;5.402;2023-02-15T10:02:38;5.80;99.90
54954;DHT22;40855;51.072;5.402;2023-02-15T10:14:33;6.40;99.90
54954;DHT22;40855;51.072;5.402;2023-02-15T10:17:10;6.50;99.90
54954;DHT22;40855;51.072;5.402;2023-02-15T10:28:19;7.10;99.90
54954;DHT22;40855;51.072;5.402;2023-02-15T10:33:43;7.30;99.90
54954;DHT22;40855;51.072;5.402;2023-02-15T10:52:41;8.00;99.90
54954;DHT22;40855;51.072;5.402;2023-02-15T11:01:30;8.30;99.90
54954;DHT22;40855;51.072;5.402;2023-02-15T11:06:50;8.60;99.90
54954;DHT22;40855;51.072;5.402;2023-02-15T11:09:20;8.70;99.90
54954;DHT22;40855;51.072;5.402;2023-02-15T11:11:54;8.80;99.90
54954;DHT22;40855;51.072;5.402;2023-02-15T11:17:05;9.10;99.90
54954;DHT22;40855;51.072;5.402;2023-02-15T11:19:37;9.20;99.90
54954;DHT22;40855;51.072;5.402;2023-02-15T11:22:06;9.30;99.90
54954;DHT22;40855;51.072;5.402;2023-02-15T11:24:37;9.50;99.90
54954;DHT22;40855;51.072;5.402;2023-02-15T11:27:25;9.50;99.90
54954;DHT22;40855;51.072;5.402;2023-02-15T11:30:15;9.60;99.90
54954;DHT22;40855;51.072;5.402;2023-02-15T11:32:48;9.70;99.90
54954;DHT22;40855;51.072;5.402;2023-02-15T11:35:41;9.80;99.90
54954;DHT22;40855;51.072;5.402;2023-02-15T11:38:21;9.90;99.90
54954;DHT22;40855;51.072;5.402;2023-02-15T11:41:07;10.10;99.90
54954;DHT22;40855;51.072;5.402;2023-02-15T11:43:49;10.20;99.90
54954;DHT22;40855;51.072;5.402;2023-02-15T11:46:17;10.20;99.90
54954;DHT22;40855;51.072;5.402;2023-02-15T11:48:44;10.40;99.90
54954;DHT22;40855;51.072;5.402;2023-02-15T11:51:14;10.40;99.90
54954;DHT22;40855;51.072;5.402;2023-02-15T11:53:42;10.50;99.90
54954;DHT22;40855;51.072;5.402;2023-02-15T11:56:38;10.60;99.90
54954;DHT22;40855;51.072;5.402;2023-02-15T11:59:09;10.70;99.90
54954;DHT22;40855;51.072;5.402;2023-02-15T12:01:46;10.80;99.90
54954;DHT22;40855;51.072;5.402;2023-02-15T12:04:26;10.90;99.90
54954;DHT22;40855;51.072;5.402;2023-02-15T12:09:58;11.10;99.90
54954;DHT22;40855;51.072;5.402;2023-02-15T12:15:07;11.30;99.90
54954;DHT22;40855;51.072;5.402;2023-02-15T12:17:35;11.30;99.90
54954;DHT22;40855;51.072;5.402;2023-02-15T12:20:31;11.50;99.90
54954;DHT22;40855;51.072;5.402;2023-02-15T12:28:23;11.70;99.90
54954;DHT22;40855;51.072;5.402;2023-02-15T12:30:50;11.80;99.90
54954;DHT22;40855;51.072;5.402;2023-02-15T12:33:44;11.80;99.90
54954;DHT22;40855;51.072;5.402;2023-02-15T12:36:17;11.90;99.90
54954;DHT22;40855;51.072;5.402;2023-02-15T12:39:03;12.00;99.90
54954;DHT22;40855;51.072;5.402;2023-02-15T12:41:28;12.10;99.90
54954;DHT22;40855;51.072;5.402;2023-02-15T12:44:17;12.20;99.90
54954;DHT22;40855;51.072;5.402;2023-02-15T12:49:33;12.30;99.90
54954;DHT22;40855;51.072;5.402;2023-02-15T12:52:02;12.40;99.90
54954;DHT22;40855;51.072;5.402;2023-02-15T12:57:26;12.50;99.90
54954;DHT22;40855;51.072;5.402;2023-02-15T13:00:05;12.60;99.80
54954;DHT22;40855;51.072;5.402;2023-02-15T13:13:18;12.80;99.50
54954;DHT22;40855;51.072;5.402;2023-02-15T13:15:49;12.80;99.30
54954;DHT22;40855;51.072;5.402;2023-02-15T13:21:18;12.90;98.80
54954;DHT22;40855;51.072;5.402;2023-02-15T13:23:48;12.90;98.70
54954;DHT22;40855;51.072;5.402;2023-02-15T13:26:19;13.00;99.20
54954;DHT22;40855;51.072;5.402;2023-02-15T13:28:51;13.10;98.80
54954;DHT22;40855;51.072;5.402;2023-02-15T13:31:20;13.10;98.50
54954;DHT22;40855;51.072;5.402;2023-02-15T13:34:09;13.20;99.00
54954;DHT22;40855;51.072;5.402;2023-02-15T13:52:34;13.10;98.70
54954;DHT22;40855;51.072;5.402;2023-02-15T14:00:26;13.20;98.60
54954;DHT22;40855;51.072;5.402;2023-02-15T14:06:05;13.20;98.90
54954;DHT22;40855;51.072;5.402;2023-02-15T14:11:21;13.30;99.10
54954;DHT22;40855;51.072;5.402;2023-02-15T14:17:27;13.30;98.30
54954;DHT22;40855;51.072;5.402;2023-02-15T14:20:20;13.20;98.30
54954;DHT22;40855;51.072;5.402;2023-02-15T14:25:28;13.20;98.90
54954;DHT22;40855;51.072;5.402;2023-02-15T14:30:38;13.10;99.50
54954;DHT22;40855;51.072;5.402;2023-02-15T14:35:53;13.10;99.10
54954;DHT22;40855;51.072;5.402;2023-02-15T14:38:31;13.10;99.60
54954;DHT22;40855;51.072;5.402;2023-02-15T14:41:18;13.20;99.30
54954;DHT22;40855;51.072;5.402;2023-02-15T14:49:11;13.20;99.60
54954;DHT22;40855;51.072;5.402;2023-02-15T14:54:09;13.20;99.40
54954;DHT22;40855;51.072;5.402;2023-02-15T14:56:35;13.10;99.10
54954;DHT22;40855;51.072;5.402;2023-02-15T14:59:23;13.10;99.40
54954;DHT22;40855;51.072;5.402;2023-02-15T15:04:38;13.10;99.50
54954;DHT22;40855;51.072;5.402;2023-02-15T15:08:19;13.10;99.90
54954;DHT22;40855;51.072;5.402;2023-02-15T15:12:53;13.10;99.80
54954;DHT22;40855;51.072;5.402;2023-02-15T15:18:09;13.00;99.80
54954;DHT22;40855;51.072;5.402;2023-02-15T15:20:45;13.10;99.90
54954;DHT22;40855;51.072;5.402;2023-02-15T15:25:50;13.00;99.90
54954;DHT22;40855;51.072;5.402;2023-02-15T15:31:18;13.10;99.90
54954;DHT22;40855;51.072;5.402;2023-02-15T15:34:15;13.00;99.90
54954;DHT22;40855;51.072;5.402;2023-02-15T15:40:11;12.90;99.90
54954;DHT22;40855;51.072;5.402;2023-02-15T15:42:50;13.00;99.90
54954;DHT22;40855;51.072;5.402;2023-02-15T15:50:42;13.00;99.90
54954;DHT22;40855;51.072;5.402;2023-02-15T15:53:21;12.90;99.90
54954;DHT22;40855;51.072;5.402;2023-02-15T15:55:49;12.90;99.90
54954;DHT22;40855;51.072;5.402;2023-02-15T15:58:18;12.90;99.90
54954;DHT22;40855;51.072;5.402;2023-02-15T16:01:26;12.90;99.90
54954;DHT22;40855;51.072;5.402;2023-02-15T16:03:52;13.00;99.90
54954;DHT22;40855;51.072;5.402;2023-02-15T16:06:34;12.90;99.90
54954;DHT22;40855;51.072;5.402;2023-02-15T16:09:22;12.90;99.90
54954;DHT22;40855;51.072;5.402;2023-02-15T16:11:51;12.90;99.90
54954;DHT22;40855;51.072;5.402;2023-02-15T16:14:38;13.00;99.90
54954;DHT22;40855;51.072;5.402;2023-02-15T16:17:07;13.00;99.90
54954;DHT22;40855;51.072;5.402;2023-02-15T16:19:36;13.00;99.90
54954;DHT22;40855;51.072;5.402;2023-02-15T16:22:04;13.00;99.90
54954;DHT22;40855;51.072;5.402;2023-02-15T16:29:47;12.90;99.90
54954;DHT22;40855;51.072;5.402;2023-02-15T16:35:17;12.90;99.90
54954;DHT22;40855;51.072;5.402;2023-02-15T16:37:44;12.80;99.90
54954;DHT22;40855;51.072;5.402;2023-02-15T16:40:46;12.80;99.90
54954;DHT22;40855;51.072;5.402;2023-02-15T16:43:26;12.90;99.90
54954;DHT22;40855;51.072;5.402;2023-02-15T16:46:02;12.80;99.90
54954;DHT22;40855;51.072;5.402;2023-02-15T16:48:29;12.70;99.90
54954;DHT22;40855;51.072;5.402;2023-02-15T16:50:57;12.70;99.90
54954;DHT22;40855;51.072;5.402;2023-02-15T16:53:28;12.70;99.90
54954;DHT22;40855;51.072;5.402;2023-02-15T16:55:59;12.70;99.90
54954;DHT22;40855;51.072;5.402;2023-02-15T16:58:36;12.70;99.90
54954;DHT22;40855;51.072;5.402;2023-02-15T17:01:06;12.70;99.90
54954;DHT22;40855;51.072;5.402;2023-02-15T17:03:33;12.60;99.90
54954;DHT22;40855;51.072;5.402;2023-02-15T17:06:00;12.50;99.90
54954;DHT22;40855;51.072;5.402;2023-02-15T17:13:24;12.50;99.90
54954;DHT22;40855;51.072;5.402;2023-02-15T17:18:40;12.50;99.90
54954;DHT22;40855;51.072;5.402;2023-02-15T17:21:17;12.50;99.90
54954;DHT22;40855;51.072;5.402;2023-02-15T17:23:51;12.50;99.90
54954;DHT22;40855;51.072;5.402;2023-02-15T17:26:27;12.50;99.90
54954;DHT22;40855;51.072;5.402;2023-02-15T17:28:56;12.50;99.90
54954;DHT22;40855;51.072;5.402;2023-02-15T17:31:25;12.40;99.90
54954;DHT22;40855;51.072;5.402;2023-02-15T17:33:55;12.40;99.90
54954;DHT22;40855;51.072;5.402;2023-02-15T17:36:23;12.30;99.90
54954;DHT22;40855;51.072;5.402;2023-02-15T17:39:03;12.30;99.90
54954;DHT22;40855;51.072;5.402;2023-02-15T17:41:31;12.20;99.90
54954;DHT22;40855;51.072;5.402;2023-02-15T17:43:58;12.10;99.90
54954;DHT22;40855;51.072;5.402;2023-02-15T17:46:25;12.10;99.90
54954;DHT22;40855;51.072;5.402;2023-02-15T17:48:53;12.00;99.90
54954;DHT22;40855;51.072;5.402;2023-02-15T17:51:21;12.00;99.90
54954;DHT22;40855;51.072;5.402;2023-02-15T17:53:47;11.90;99.90
54954;DHT22;40855;51.072;5.402;2023-02-15T17:56:32;11.90;99.90
54954;DHT22;40855;51.072;5.402;2023-02-15T17:58:58;11.80;99.90
54954;DHT22;40855;51.072;5.402;2023-02-15T18:01:23;11.80;99.90
54954;DHT22;40855;51.072;5.402;2023-02-15T18:04:11;11.80;99.90
54954;DHT22;40855;51.072;5.402;2023-02-15T18:06:56;11.70;99.90
54954;DHT22;40855;51.072;5.402;2023-02-15T18:09:41;11.60;99.90
54954;DHT22;40855;51.072;5.402;2023-02-15T18:12:30;11.50;99.90
54954;DHT22;40855;51.072;5.402;2023-02-15T18:14:57;11.50;99.90
54954;DHT22;40855;51.072;5.402;2023-02-15T18:19:54;11.40;99.90
54954;DHT22;40855;51.072;5.402;2023-02-15T18:22:20;11.40;99.90
54954;DHT22;40855;51.072;5.402;2023-02-15T18:24:47;11.30;99.90
54954;DHT22;40855;51.072;5.402;2023-02-15T18:27:14;11.30;99.90
54954;DHT22;40855;51.072;5.402;2023-02-15T18:29:41;11.20;99.90
54954;DHT22;40855;51.072;5.402;2023-02-15T18:32:16;11.20;99.90
54954;DHT22;40855;51.072;5.402;2023-02-15T18:34:43;11.10;99.90
54954;DHT22;40855;51.072;5.402;2023-02-15T18:37:18;11.10;99.90
54954;DHT22;40855;51.072;5.402;2023-02-15T18:39:49;11.00;99.90
54954;DHT22;40855;51.072;5.402;2023-02-15T18:42:27;11.00;99.90
54954;DHT22;40855;51.072;5.402;2023-02-15T18:45:17;10.90;99.90
54954;DHT22;40855;51.072;5.402;2023-02-15T18:47:44;10.80;99.90
54954;DHT22;40855;51.072;5.402;2023-02-15T18:50:12;10.90;99.90
54954;DHT22;40855;51.072;5.402;2023-02-15T18:52:38;10.90;99.90
54954;DHT22;40855;51.072;5.402;2023-02-15T18:55:25;10.80;99.90
54954;DHT22;40855;51.072;5.402;2023-02-15T18:57:54;10.80;99.90
54954;DHT22;40855;51.072;5.402;2023-02-15T19:02:53;10.80;99.90
54954;DHT22;40855;51.072;5.402;2023-02-15T19:05:19;10.80;99.90
54954;DHT22;40855;51.072;5.402;2023-02-15T19:07:47;10.80;99.90
54954;DHT22;40855;51.072;5.402;2023-02-15T19:10:19;10.70;99.90
54954;DHT22;40855;51.072;5.402;2023-02-15T19:12:45;10.70;99.90
54954;DHT22;40855;51.072;5.402;2023-02-15T19:15:30;10.70;99.90
54954;DHT22;40855;51.072;5.402;2023-02-15T19:17:56;10.70;99.90
54954;DHT22;40855;51.072;5.402;2023-02-15T19:20:24;10.60;99.90
54954;DHT22;40855;51.072;5.402;2023-02-15T19:22:52;10.60;99.90
54954;DHT22;40855;51.072;5.402;2023-02-15T19:25:25;10.60;99.90
54954;DHT22;40855;51.072;5.402;2023-02-15T19:27:52;10.50;99.90
54954;DHT22;40855;51.072;5.402;2023-02-15T19:30:24;10.50;99.90
54954;DHT22;40855;51.072;5.402;2023-02-15T19:32:52;10.50;99.90
54954;DHT22;40855;51.072;5.402;2023-02-15T19:35:19;10.40;99.90
54954;DHT22;40855;51.072;5.402;2023-02-15T19:37:52;10.50;99.90
54954;DHT22;40855;51.072;5.402;2023-02-15T19:40:29;10.40;99.90
54954;DHT22;40855;51.072;5.402;2023-02-15T19:42:56;10.40;99.90
54954;DHT22;40855;51.072;5.402;2023-02-15T19:45:27;10.30;99.90
54954;DHT22;40855;51.072;5.402;2023-02-15T19:47:53;10.30;99.90
54954;DHT22;40855;51.072;5.402;2023-02-15T19:50:28;10.30;99.90
54954;DHT22;40855;51.072;5.402;2023-02-15T19:52:54;10.30;99.90